sensor_id;sensor_type;location;lat;lon;timestamp;P1;durP1;ratioP1;P2;durP2;ratioP2
70406;SDS011;57821;52.202;0.154;2022-11-15T00:02:37;7.18;;;2.00;;
70406;SDS011;57821;52.202;0.154;2022-11-15T00:05:21;7.32;;;2.53;;
70406;SDS011;57821;52.202;0.154;2022-11-15T00:08:06;8.35;;;2.38;;
70406;SDS011;57821;52.202;0.154;2022-11-15T00:10:55;8.68;;;2.35;;
70406;SDS011;57821;52.202;0.154;2022-11-15T00:13:41;10.02;;;2.50;;
70406;SDS011;57821;52.202;0.154;2022-11-15T00:16:26;8.57;;;2.20;;
70406;SDS011;57821;52.202;0.154;2022-11-15T00:19:11;8.35;;;2.10;;
70406;SDS011;57821;52.202;0.154;2022-11-15T00:21:55;6.00;;;1.58;;
70406;SDS011;57821;52.202;0.154;2022-11-15T00:24:40;7.32;;;1.70;;
70406;SDS011;57821;52.202;0.154;2022-11-15T00:27:26;6.30;;;1.75;;
70406;SDS011;57821;52.202;0.154;2022-11-15T00:30:11;5.35;;;1.70;;
70406;SDS011;57821;52.202;0.154;2022-11-15T00:32:56;12.65;;;2.15;;
70406;SDS011;57821;52.202;0.154;2022-11-15T00:35:41;6.40;;;1.83;;
70406;SDS011;57821;52.202;0.154;2022-11-15T00:38:29;6.72;;;2.22;;
70406;SDS011;57821;52.202;0.154;2022-11-15T00:41:16;6.57;;;1.80;;
70406;SDS011;57821;52.202;0.154;2022-11-15T00:44:00;9.57;;;2.22;;
70406;SDS011;57821;52.202;0.154;2022-11-15T00:46:45;10.15;;;1.98;;
70406;SDS011;57821;52.202;0.154;2022-11-15T00:49:30;7.00;;;1.98;;
70406;SDS011;57821;52.202;0.154;2022-11-15T00:52:15;12.55;;;2.67;;
70406;SDS011;57821;52.202;0.154;2022-11-15T00:55:00;9.18;;;2.75;;
70406;SDS011;57821;52.202;0.154;2022-11-15T00:57:45;10.70;;;2.10;;
70406;SDS011;57821;52.202;0.154;2022-11-15T01:00:30;7.60;;;2.15;;
70406;SDS011;57821;52.202;0.154;2022-11-15T01:03:16;7.22;;;1.90;;
70406;SDS011;57821;52.202;0.154;2022-11-15T01:06:01;7.07;;;1.92;;
70406;SDS011;57821;52.202;0.154;2022-11-15T01:08:46;6.40;;;2.38;;
70406;SDS011;57821;52.202;0.154;2022-11-15T01:11:31;7.07;;;1.42;;
70406;SDS011;57821;52.202;0.154;2022-11-15T01:14:16;6.72;;;1.75;;
70406;SDS011;57821;52.202;0.154;2022-11-15T01:17:08;9.30;;;1.70;;
70406;SDS011;57821;52.202;0.154;2022-11-15T01:19:53;11.00;;;1.52;;
70406;SDS011;57821;52.202;0.154;2022-11-15T01:22:38;8.45;;;2.35;;
70406;SDS011;57821;52.202;0.154;2022-11-15T01:25:23;9.30;;;1.98;;
70406;SDS011;57821;52.202;0.154;2022-11-15T01:28:07;20.58;;;2.90;;
70406;SDS011;57821;52.202;0.154;2022-11-15T01:30:52;7.00;;;1.73;;
70406;SDS011;57821;52.202;0.154;2022-11-15T01:33:37;9.23;;;1.60;;
70406;SDS011;57821;52.202;0.154;2022-11-15T01:36:22;7.55;;;1.25;;
70406;SDS011;57821;52.202;0.154;2022-11-15T01:39:07;9.55;;;1.55;;
70406;SDS011;57821;52.202;0.154;2022-11-15T01:41:52;7.97;;;1.50;;
70406;SDS011;57821;52.202;0.154;2022-11-15T01:44:44;5.50;;;1.77;;
70406;SDS011;57821;52.202;0.154;2022-11-15T01:47:33;6.32;;;1.02;;
70406;SDS011;57821;52.202;0.154;2022-11-15T01:50:23;9.70;;;1.48;;
70406;SDS011;57821;52.202;0.154;2022-11-15T01:53:12;12.32;;;2.88;;
70406;SDS011;57821;52.202;0.154;2022-11-15T01:55:57;9.57;;;1.35;;
70406;SDS011;57821;52.202;0.154;2022-11-15T01:58:43;10.82;;;2.17;;
70406;SDS011;57821;52.202;0.154;2022-11-15T02:01:30;8.85;;;1.35;;
70406;SDS011;57821;52.202;0.154;2022-11-15T02:04:19;7.78;;;1.35;;
70406;SDS011;57821;52.202;0.154;2022-11-15T02:07:09;7.90;;;1.40;;
70406;SDS011;57821;52.202;0.154;2022-11-15T02:10:06;14.52;;;1.98;;
70406;SDS011;57821;52.202;0.154;2022-11-15T02:12:52;9.27;;;1.70;;
70406;SDS011;57821;52.202;0.154;2022-11-15T02:15:40;5.25;;;1.20;;
70406;SDS011;57821;52.202;0.154;2022-11-15T02:19:34;11.50;;;1.80;;
70406;SDS011;57821;52.202;0.154;2022-11-15T02:22:10;11.38;;;1.60;;
70406;SDS011;57821;52.202;0.154;2022-11-15T02:25:06;7.00;;;1.33;;
70406;SDS011;57821;52.202;0.154;2022-11-15T02:34:24;7.15;;;1.38;;
70406;SDS011;57821;52.202;0.154;2022-11-15T02:40:33;8.40;;;1.75;;
70406;SDS011;57821;52.202;0.154;2022-11-15T02:43:53;8.73;;;1.55;;
70406;SDS011;57821;52.202;0.154;2022-11-15T02:49:50;10.27;;;2.00;;
70406;SDS011;57821;52.202;0.154;2022-11-15T02:52:38;7.50;;;1.45;;
70406;SDS011;57821;52.202;0.154;2022-11-15T03:01:37;12.27;;;1.77;;
70406;SDS011;57821;52.202;0.154;2022-11-15T03:07:30;14.73;;;1.55;;
70406;SDS011;57821;52.202;0.154;2022-11-15T03:13:26;9.52;;;1.45;;
70406;SDS011;57821;52.202;0.154;2022-11-15T03:16:26;19.40;;;3.63;;
70406;SDS011;57821;52.202;0.154;2022-11-15T03:22:13;7.97;;;1.48;;
70406;SDS011;57821;52.202;0.154;2022-11-15T03:25:04;9.20;;;1.23;;
70406;SDS011;57821;52.202;0.154;2022-11-15T03:27:54;11.30;;;1.92;;
70406;SDS011;57821;52.202;0.154;2022-11-15T03:30:42;9.93;;;1.40;;
70406;SDS011;57821;52.202;0.154;2022-11-15T03:33:30;11.57;;;1.45;;
70406;SDS011;57821;52.202;0.154;2022-11-15T03:36:16;6.38;;;1.13;;
70406;SDS011;57821;52.202;0.154;2022-11-15T03:39:04;10.65;;;1.50;;
70406;SDS011;57821;52.202;0.154;2022-11-15T03:44:47;8.98;;;1.58;;
70406;SDS011;57821;52.202;0.154;2022-11-15T03:48:13;13.10;;;1.80;;
70406;SDS011;57821;52.202;0.154;2022-11-15T03:51:03;8.60;;;1.27;;
70406;SDS011;57821;52.202;0.154;2022-11-15T03:53:49;10.63;;;1.70;;
70406;SDS011;57821;52.202;0.154;2022-11-15T03:56:35;12.25;;;2.00;;
70406;SDS011;57821;52.202;0.154;2022-11-15T03:59:20;12.10;;;1.90;;
70406;SDS011;57821;52.202;0.154;2022-11-15T04:02:05;10.73;;;2.13;;
70406;SDS011;57821;52.202;0.154;2022-11-15T04:04:50;9.13;;;1.60;;
70406;SDS011;57821;52.202;0.154;2022-11-15T04:07:35;8.45;;;1.35;;
70406;SDS011;57821;52.202;0.154;2022-11-15T04:10:20;8.32;;;1.58;;
70406;SDS011;57821;52.202;0.154;2022-11-15T04:13:05;12.40;;;1.77;;
70406;SDS011;57821;52.202;0.154;2022-11-15T04:15:50;10.18;;;1.50;;
70406;SDS011;57821;52.202;0.154;2022-11-15T04:18:36;10.82;;;1.20;;
70406;SDS011;57821;52.202;0.154;2022-11-15T04:21:21;12.57;;;2.53;;
70406;SDS011;57821;52.202;0.154;2022-11-15T04:24:05;12.30;;;1.58;;
70406;SDS011;57821;52.202;0.154;2022-11-15T04:26:51;15.15;;;1.60;;
70406;SDS011;57821;52.202;0.154;2022-11-15T04:29:35;11.25;;;1.48;;
70406;SDS011;57821;52.202;0.154;2022-11-15T04:32:20;11.88;;;1.50;;
70406;SDS011;57821;52.202;0.154;2022-11-15T04:35:05;10.45;;;1.40;;
70406;SDS011;57821;52.202;0.154;2022-11-15T04:37:51;13.98;;;1.70;;
70406;SDS011;57821;52.202;0.154;2022-11-15T04:40:36;15.45;;;1.77;;
70406;SDS011;57821;52.202;0.154;2022-11-15T04:43:22;10.48;;;1.50;;
70406;SDS011;57821;52.202;0.154;2022-11-15T04:46:07;6.45;;;1.17;;
70406;SDS011;57821;52.202;0.154;2022-11-15T04:48:52;11.35;;;1.40;;
70406;SDS011;57821;52.202;0.154;2022-11-15T04:51:42;14.27;;;1.70;;
70406;SDS011;57821;52.202;0.154;2022-11-15T04:54:28;10.18;;;2.05;;
70406;SDS011;57821;52.202;0.154;2022-11-15T04:57:12;12.82;;;1.48;;
70406;SDS011;57821;52.202;0.154;2022-11-15T04:59:58;7.47;;;1.20;;
70406;SDS011;57821;52.202;0.154;2022-11-15T05:02:43;11.27;;;1.75;;
70406;SDS011;57821;52.202;0.154;2022-11-15T05:05:28;9.82;;;1.48;;
70406;SDS011;57821;52.202;0.154;2022-11-15T05:08:13;10.27;;;2.05;;
70406;SDS011;57821;52.202;0.154;2022-11-15T05:10:58;13.25;;;1.70;;
70406;SDS011;57821;52.202;0.154;2022-11-15T05:13:43;14.25;;;1.45;;
70406;SDS011;57821;52.202;0.154;2022-11-15T05:16:27;12.10;;;1.17;;
70406;SDS011;57821;52.202;0.154;2022-11-15T05:19:12;12.68;;;1.48;;
70406;SDS011;57821;52.202;0.154;2022-11-15T05:21:58;10.88;;;1.45;;
70406;SDS011;57821;52.202;0.154;2022-11-15T05:24:42;14.02;;;1.50;;
70406;SDS011;57821;52.202;0.154;2022-11-15T05:27:27;9.55;;;1.55;;
70406;SDS011;57821;52.202;0.154;2022-11-15T05:30:12;7.60;;;1.40;;
70406;SDS011;57821;52.202;0.154;2022-11-15T05:32:58;11.75;;;1.90;;
70406;SDS011;57821;52.202;0.154;2022-11-15T05:35:46;16.40;;;2.67;;
70406;SDS011;57821;52.202;0.154;2022-11-15T05:38:35;6.90;;;1.33;;
70406;SDS011;57821;52.202;0.154;2022-11-15T05:41:20;10.18;;;1.50;;
70406;SDS011;57821;52.202;0.154;2022-11-15T05:44:11;15.38;;;1.67;;
70406;SDS011;57821;52.202;0.154;2022-11-15T05:46:59;14.63;;;2.35;;
70406;SDS011;57821;52.202;0.154;2022-11-15T05:49:44;18.60;;;2.83;;
70406;SDS011;57821;52.202;0.154;2022-11-15T05:52:32;12.57;;;1.60;;
70406;SDS011;57821;52.202;0.154;2022-11-15T05:55:20;19.30;;;3.85;;
70406;SDS011;57821;52.202;0.154;2022-11-15T05:58:05;13.50;;;1.83;;
70406;SDS011;57821;52.202;0.154;2022-11-15T06:00:50;13.52;;;1.80;;
70406;SDS011;57821;52.202;0.154;2022-11-15T06:03:35;12.90;;;2.88;;
70406;SDS011;57821;52.202;0.154;2022-11-15T06:06:20;11.75;;;1.73;;
70406;SDS011;57821;52.202;0.154;2022-11-15T06:09:05;11.63;;;1.80;;
70406;SDS011;57821;52.202;0.154;2022-11-15T06:11:50;14.10;;;1.95;;
70406;SDS011;57821;52.202;0.154;2022-11-15T06:14:35;12.98;;;1.92;;
70406;SDS011;57821;52.202;0.154;2022-11-15T06:17:20;14.07;;;2.33;;
70406;SDS011;57821;52.202;0.154;2022-11-15T06:20:05;12.52;;;1.73;;
70406;SDS011;57821;52.202;0.154;2022-11-15T06:22:50;11.13;;;1.73;;
70406;SDS011;57821;52.202;0.154;2022-11-15T06:25:35;15.63;;;1.63;;
70406;SDS011;57821;52.202;0.154;2022-11-15T06:28:20;12.43;;;1.52;;
70406;SDS011;57821;52.202;0.154;2022-11-15T06:31:06;15.70;;;2.22;;
70406;SDS011;57821;52.202;0.154;2022-11-15T06:33:52;19.48;;;2.20;;
70406;SDS011;57821;52.202;0.154;2022-11-15T06:36:37;14.68;;;1.85;;
70406;SDS011;57821;52.202;0.154;2022-11-15T06:39:22;12.93;;;2.40;;
70406;SDS011;57821;52.202;0.154;2022-11-15T06:42:08;8.05;;;1.70;;
70406;SDS011;57821;52.202;0.154;2022-11-15T06:44:53;19.58;;;1.90;;
70406;SDS011;57821;52.202;0.154;2022-11-15T06:47:47;15.82;;;2.65;;
70406;SDS011;57821;52.202;0.154;2022-11-15T06:50:32;16.35;;;3.08;;
70406;SDS011;57821;52.202;0.154;2022-11-15T06:53:17;15.73;;;2.08;;
70406;SDS011;57821;52.202;0.154;2022-11-15T06:56:03;18.10;;;2.72;;
70406;SDS011;57821;52.202;0.154;2022-11-15T06:58:50;15.43;;;2.03;;
70406;SDS011;57821;52.202;0.154;2022-11-15T07:01:35;14.38;;;2.00;;
70406;SDS011;57821;52.202;0.154;2022-11-15T07:04:20;18.55;;;1.95;;
70406;SDS011;57821;52.202;0.154;2022-11-15T07:07:05;12.05;;;2.03;;
70406;SDS011;57821;52.202;0.154;2022-11-15T07:09:50;17.40;;;2.53;;
70406;SDS011;57821;52.202;0.154;2022-11-15T07:12:35;16.20;;;2.33;;
70406;SDS011;57821;52.202;0.154;2022-11-15T07:15:21;13.43;;;1.83;;
70406;SDS011;57821;52.202;0.154;2022-11-15T07:18:09;15.50;;;2.20;;
70406;SDS011;57821;52.202;0.154;2022-11-15T07:20:54;13.95;;;2.00;;
70406;SDS011;57821;52.202;0.154;2022-11-15T07:23:39;18.02;;;3.40;;
70406;SDS011;57821;52.202;0.154;2022-11-15T07:26:24;21.98;;;2.60;;
70406;SDS011;57821;52.202;0.154;2022-11-15T07:29:09;15.80;;;3.10;;
70406;SDS011;57821;52.202;0.154;2022-11-15T07:31:54;14.98;;;2.00;;
70406;SDS011;57821;52.202;0.154;2022-11-15T07:34:39;14.93;;;2.10;;
70406;SDS011;57821;52.202;0.154;2022-11-15T07:37:24;21.50;;;3.17;;
70406;SDS011;57821;52.202;0.154;2022-11-15T07:40:09;13.43;;;2.03;;
70406;SDS011;57821;52.202;0.154;2022-11-15T07:43:01;14.07;;;2.53;;
70406;SDS011;57821;52.202;0.154;2022-11-15T07:45:47;20.13;;;2.50;;
70406;SDS011;57821;52.202;0.154;2022-11-15T07:48:32;14.07;;;2.33;;
70406;SDS011;57821;52.202;0.154;2022-11-15T07:51:28;15.10;;;3.22;;
70406;SDS011;57821;52.202;0.154;2022-11-15T07:54:13;13.30;;;2.20;;
70406;SDS011;57821;52.202;0.154;2022-11-15T07:56:58;12.30;;;1.90;;
70406;SDS011;57821;52.202;0.154;2022-11-15T07:59:50;18.02;;;2.38;;
70406;SDS011;57821;52.202;0.154;2022-11-15T08:02:35;13.13;;;2.22;;
70406;SDS011;57821;52.202;0.154;2022-11-15T08:05:21;18.95;;;2.22;;
70406;SDS011;57821;52.202;0.154;2022-11-15T08:08:06;16.75;;;2.78;;
70406;SDS011;57821;52.202;0.154;2022-11-15T08:10:52;10.77;;;2.00;;
70406;SDS011;57821;52.202;0.154;2022-11-15T08:13:37;14.60;;;2.05;;
70406;SDS011;57821;52.202;0.154;2022-11-15T08:16:22;20.52;;;2.38;;
70406;SDS011;57821;52.202;0.154;2022-11-15T08:19:07;11.75;;;1.80;;
70406;SDS011;57821;52.202;0.154;2022-11-15T08:21:52;15.20;;;1.80;;
70406;SDS011;57821;52.202;0.154;2022-11-15T08:24:37;19.08;;;2.10;;
70406;SDS011;57821;52.202;0.154;2022-11-15T08:27:21;18.52;;;2.63;;
70406;SDS011;57821;52.202;0.154;2022-11-15T08:30:06;16.67;;;2.03;;
70406;SDS011;57821;52.202;0.154;2022-11-15T08:32:52;16.00;;;2.45;;
70406;SDS011;57821;52.202;0.154;2022-11-15T08:35:39;15.10;;;2.80;;
70406;SDS011;57821;52.202;0.154;2022-11-15T08:38:28;20.42;;;3.13;;
70406;SDS011;57821;52.202;0.154;2022-11-15T08:41:16;18.63;;;2.90;;
70406;SDS011;57821;52.202;0.154;2022-11-15T08:44:09;18.83;;;2.72;;
70406;SDS011;57821;52.202;0.154;2022-11-15T08:46:54;15.85;;;2.30;;
70406;SDS011;57821;52.202;0.154;2022-11-15T08:49:39;14.82;;;2.20;;
70406;SDS011;57821;52.202;0.154;2022-11-15T08:52:23;18.63;;;4.15;;
70406;SDS011;57821;52.202;0.154;2022-11-15T08:55:08;14.73;;;2.22;;
70406;SDS011;57821;52.202;0.154;2022-11-15T08:57:53;15.63;;;2.65;;
70406;SDS011;57821;52.202;0.154;2022-11-15T09:00:41;15.50;;;2.80;;
70406;SDS011;57821;52.202;0.154;2022-11-15T09:03:26;15.25;;;2.72;;
70406;SDS011;57821;52.202;0.154;2022-11-15T09:06:12;22.50;;;2.88;;
70406;SDS011;57821;52.202;0.154;2022-11-15T09:08:57;14.77;;;2.30;;
70406;SDS011;57821;52.202;0.154;2022-11-15T09:11:43;10.63;;;2.55;;
70406;SDS011;57821;52.202;0.154;2022-11-15T09:14:28;19.58;;;2.88;;
70406;SDS011;57821;52.202;0.154;2022-11-15T09:17:13;19.17;;;3.45;;
70406;SDS011;57821;52.202;0.154;2022-11-15T09:19:58;19.70;;;5.53;;
70406;SDS011;57821;52.202;0.154;2022-11-15T09:22:43;24.25;;;6.47;;
70406;SDS011;57821;52.202;0.154;2022-11-15T09:25:28;17.98;;;5.28;;
70406;SDS011;57821;52.202;0.154;2022-11-15T09:28:13;16.63;;;5.55;;
70406;SDS011;57821;52.202;0.154;2022-11-15T09:30:59;24.00;;;5.43;;
70406;SDS011;57821;52.202;0.154;2022-11-15T09:33:45;21.50;;;6.75;;
70406;SDS011;57821;52.202;0.154;2022-11-15T09:36:31;26.83;;;8.27;;
70406;SDS011;57821;52.202;0.154;2022-11-15T09:39:15;16.80;;;5.20;;
70406;SDS011;57821;52.202;0.154;2022-11-15T09:45:28;17.77;;;4.75;;
70406;SDS011;57821;52.202;0.154;2022-11-15T09:51:49;16.73;;;4.63;;
70406;SDS011;57821;52.202;0.154;2022-11-15T10:03:20;11.65;;;2.90;;
70406;SDS011;57821;52.202;0.154;2022-11-15T10:05:54;14.23;;;3.45;;
70406;SDS011;57821;52.202;0.154;2022-11-15T10:09:12;15.68;;;3.72;;
70406;SDS011;57821;52.202;0.154;2022-11-15T10:11:29;16.17;;;3.25;;
70406;SDS011;57821;52.202;0.154;2022-11-15T10:14:15;13.63;;;2.83;;
70406;SDS011;57821;52.202;0.154;2022-11-15T10:19:38;8.57;;;2.17;;
70406;SDS011;57821;52.202;0.154;2022-11-15T10:24:47;11.55;;;1.83;;
70406;SDS011;57821;52.202;0.154;2022-11-15T10:27:15;11.43;;;2.10;;
70406;SDS011;57821;52.202;0.154;2022-11-15T10:29:44;11.30;;;2.00;;
70406;SDS011;57821;52.202;0.154;2022-11-15T10:34:43;10.98;;;1.98;;
70406;SDS011;57821;52.202;0.154;2022-11-15T10:37:10;7.82;;;1.60;;
70406;SDS011;57821;52.202;0.154;2022-11-15T10:39:36;9.65;;;2.30;;
70406;SDS011;57821;52.202;0.154;2022-11-15T10:42:25;8.57;;;1.80;;
70406;SDS011;57821;52.202;0.154;2022-11-15T10:44:53;9.07;;;1.80;;
70406;SDS011;57821;52.202;0.154;2022-11-15T10:49:55;13.73;;;1.67;;
70406;SDS011;57821;52.202;0.154;2022-11-15T10:52:26;7.85;;;1.30;;
70406;SDS011;57821;52.202;0.154;2022-11-15T10:57:30;7.22;;;1.75;;
70406;SDS011;57821;52.202;0.154;2022-11-15T11:10:51;8.00;;;1.00;;
70406;SDS011;57821;52.202;0.154;2022-11-15T11:13:46;15.15;;;3.17;;
70406;SDS011;57821;52.202;0.154;2022-11-15T11:16:20;5.55;;;1.50;;
70406;SDS011;57821;52.202;0.154;2022-11-15T11:30:09;5.35;;;0.90;;
70406;SDS011;57821;52.202;0.154;2022-11-15T11:32:54;5.07;;;0.70;;
70406;SDS011;57821;52.202;0.154;2022-11-15T11:38:50;4.32;;;0.73;;
70406;SDS011;57821;52.202;0.154;2022-11-15T11:41:38;3.95;;;0.90;;
70406;SDS011;57821;52.202;0.154;2022-11-15T11:47:03;2.90;;;0.70;;
70406;SDS011;57821;52.202;0.154;2022-11-15T11:52:18;2.80;;;0.57;;
70406;SDS011;57821;52.202;0.154;2022-11-15T11:55:17;1.67;;;0.40;;
70406;SDS011;57821;52.202;0.154;2022-11-15T11:57:48;4.65;;;0.70;;
70406;SDS011;57821;52.202;0.154;2022-11-15T12:02:50;3.30;;;0.80;;
70406;SDS011;57821;52.202;0.154;2022-11-15T12:05:56;4.53;;;0.70;;
70406;SDS011;57821;52.202;0.154;2022-11-15T12:14:21;5.25;;;0.75;;
70406;SDS011;57821;52.202;0.154;2022-11-15T12:16:53;5.07;;;0.90;;
70406;SDS011;57821;52.202;0.154;2022-11-15T12:19:20;4.18;;;0.68;;
70406;SDS011;57821;52.202;0.154;2022-11-15T12:21:47;3.13;;;0.80;;
70406;SDS011;57821;52.202;0.154;2022-11-15T12:24:22;4.03;;;0.55;;
70406;SDS011;57821;52.202;0.154;2022-11-15T12:26:54;5.05;;;0.65;;
70406;SDS011;57821;52.202;0.154;2022-11-15T12:29:37;2.53;;;0.57;;
70406;SDS011;57821;52.202;0.154;2022-11-15T12:34:55;3.47;;;0.60;;
70406;SDS011;57821;52.202;0.154;2022-11-15T12:42:41;3.33;;;0.50;;
70406;SDS011;57821;52.202;0.154;2022-11-15T13:06:46;1.45;;;0.32;;
70406;SDS011;57821;52.202;0.154;2022-11-15T13:11:58;4.20;;;1.00;;
70406;SDS011;57821;52.202;0.154;2022-11-15T13:14:46;6.28;;;0.85;;
70406;SDS011;57821;52.202;0.154;2022-11-15T13:22:37;3.58;;;0.63;;
70406;SDS011;57821;52.202;0.154;2022-11-15T13:28:02;2.97;;;0.50;;
70406;SDS011;57821;52.202;0.154;2022-11-15T13:30:37;3.47;;;0.70;;
70406;SDS011;57821;52.202;0.154;2022-11-15T13:33:08;4.93;;;0.70;;
70406;SDS011;57821;52.202;0.154;2022-11-15T13:35:39;3.90;;;0.82;;
70406;SDS011;57821;52.202;0.154;2022-11-15T13:38:17;2.65;;;0.68;;
70406;SDS011;57821;52.202;0.154;2022-11-15T13:40:51;3.60;;;0.63;;
70406;SDS011;57821;52.202;0.154;2022-11-15T13:48:35;5.65;;;0.63;;
70406;SDS011;57821;52.202;0.154;2022-11-15T13:51:03;4.00;;;0.50;;
70406;SDS011;57821;52.202;0.154;2022-11-15T13:53:35;3.63;;;0.73;;
70406;SDS011;57821;52.202;0.154;2022-11-15T13:56:05;4.18;;;0.90;;
70406;SDS011;57821;52.202;0.154;2022-11-15T13:58:32;2.45;;;0.70;;
70406;SDS011;57821;52.202;0.154;2022-11-15T14:01:02;3.00;;;0.60;;
70406;SDS011;57821;52.202;0.154;2022-11-15T14:03:31;4.68;;;0.70;;
70406;SDS011;57821;52.202;0.154;2022-11-15T14:06:08;6.90;;;1.10;;
70406;SDS011;57821;52.202;0.154;2022-11-15T14:08:36;2.40;;;0.60;;
70406;SDS011;57821;52.202;0.154;2022-11-15T14:11:12;4.53;;;0.90;;
70406;SDS011;57821;52.202;0.154;2022-11-15T14:14:02;2.78;;;0.60;;
70406;SDS011;57821;52.202;0.154;2022-11-15T14:16:35;5.05;;;0.82;;
70406;SDS011;57821;52.202;0.154;2022-11-15T14:19:04;5.13;;;0.90;;
70406;SDS011;57821;52.202;0.154;2022-11-15T14:21:32;2.78;;;0.80;;
70406;SDS011;57821;52.202;0.154;2022-11-15T14:24:18;3.78;;;1.00;;
70406;SDS011;57821;52.202;0.154;2022-11-15T14:26:47;4.75;;;0.85;;
70406;SDS011;57821;52.202;0.154;2022-11-15T14:29:23;3.10;;;0.65;;
70406;SDS011;57821;52.202;0.154;2022-11-15T14:31:50;4.85;;;0.80;;
70406;SDS011;57821;52.202;0.154;2022-11-15T14:34:16;3.70;;;0.73;;
70406;SDS011;57821;52.202;0.154;2022-11-15T14:36:43;4.95;;;0.73;;
70406;SDS011;57821;52.202;0.154;2022-11-15T14:39:10;3.40;;;0.80;;
70406;SDS011;57821;52.202;0.154;2022-11-15T14:41:36;4.47;;;1.10;;
70406;SDS011;57821;52.202;0.154;2022-11-15T14:44:03;6.82;;;1.08;;
70406;SDS011;57821;52.202;0.154;2022-11-15T14:46:31;5.90;;;0.80;;
70406;SDS011;57821;52.202;0.154;2022-11-15T14:48:59;4.28;;;1.10;;
70406;SDS011;57821;52.202;0.154;2022-11-15T14:51:25;5.07;;;0.90;;
70406;SDS011;57821;52.202;0.154;2022-11-15T14:53:52;4.38;;;1.00;;
70406;SDS011;57821;52.202;0.154;2022-11-15T14:56:18;7.78;;;1.23;;
70406;SDS011;57821;52.202;0.154;2022-11-15T14:58:44;7.85;;;1.58;;
70406;SDS011;57821;52.202;0.154;2022-11-15T15:01:17;6.50;;;1.05;;
70406;SDS011;57821;52.202;0.154;2022-11-15T15:03:47;5.68;;;1.40;;
70406;SDS011;57821;52.202;0.154;2022-11-15T15:06:13;5.28;;;0.82;;
70406;SDS011;57821;52.202;0.154;2022-11-15T15:08:44;5.20;;;1.15;;
70406;SDS011;57821;52.202;0.154;2022-11-15T15:11:16;4.38;;;0.82;;
70406;SDS011;57821;52.202;0.154;2022-11-15T15:13:46;5.07;;;1.33;;
70406;SDS011;57821;52.202;0.154;2022-11-15T15:16:13;5.00;;;1.40;;
70406;SDS011;57821;52.202;0.154;2022-11-15T15:18:39;4.57;;;1.10;;
70406;SDS011;57821;52.202;0.154;2022-11-15T15:21:15;7.15;;;1.75;;
70406;SDS011;57821;52.202;0.154;2022-11-15T15:23:46;6.38;;;1.20;;
70406;SDS011;57821;52.202;0.154;2022-11-15T15:26:12;4.28;;;1.10;;
70406;SDS011;57821;52.202;0.154;2022-11-15T15:28:39;6.63;;;1.30;;
70406;SDS011;57821;52.202;0.154;2022-11-15T15:31:07;10.35;;;1.38;;
70406;SDS011;57821;52.202;0.154;2022-11-15T15:33:34;7.43;;;1.13;;
70406;SDS011;57821;52.202;0.154;2022-11-15T15:36:01;7.22;;;1.63;;
70406;SDS011;57821;52.202;0.154;2022-11-15T15:38:28;8.18;;;2.28;;
70406;SDS011;57821;52.202;0.154;2022-11-15T15:40:55;6.82;;;1.13;;
70406;SDS011;57821;52.202;0.154;2022-11-15T15:43:21;3.95;;;0.93;;
70406;SDS011;57821;52.202;0.154;2022-11-15T15:45:48;8.50;;;1.10;;
70406;SDS011;57821;52.202;0.154;2022-11-15T15:48:15;8.57;;;1.27;;
70406;SDS011;57821;52.202;0.154;2022-11-15T15:50:43;8.00;;;1.95;;
70406;SDS011;57821;52.202;0.154;2022-11-15T15:53:09;4.90;;;1.15;;
70406;SDS011;57821;52.202;0.154;2022-11-15T15:55:37;3.92;;;0.80;;
70406;SDS011;57821;52.202;0.154;2022-11-15T15:58:04;6.10;;;0.90;;
70406;SDS011;57821;52.202;0.154;2022-11-15T16:00:31;7.05;;;1.23;;
70406;SDS011;57821;52.202;0.154;2022-11-15T16:02:57;7.10;;;0.88;;
70406;SDS011;57821;52.202;0.154;2022-11-15T16:05:24;4.55;;;0.90;;
70406;SDS011;57821;52.202;0.154;2022-11-15T16:07:51;3.80;;;0.85;;
70406;SDS011;57821;52.202;0.154;2022-11-15T16:10:24;4.55;;;0.75;;
70406;SDS011;57821;52.202;0.154;2022-11-15T16:12:53;5.40;;;0.95;;
70406;SDS011;57821;52.202;0.154;2022-11-15T16:15:21;5.93;;;0.82;;
70406;SDS011;57821;52.202;0.154;2022-11-15T16:20:33;7.82;;;1.48;;
70406;SDS011;57821;52.202;0.154;2022-11-15T16:23:01;6.57;;;1.13;;
70406;SDS011;57821;52.202;0.154;2022-11-15T16:25:54;4.50;;;0.85;;
70406;SDS011;57821;52.202;0.154;2022-11-15T16:28:22;6.68;;;0.90;;
70406;SDS011;57821;52.202;0.154;2022-11-15T16:30:58;4.38;;;0.90;;
70406;SDS011;57821;52.202;0.154;2022-11-15T16:33:33;5.97;;;1.00;;
70406;SDS011;57821;52.202;0.154;2022-11-15T16:36:01;4.07;;;0.82;;
70406;SDS011;57821;52.202;0.154;2022-11-15T16:38:28;4.93;;;0.80;;
70406;SDS011;57821;52.202;0.154;2022-11-15T16:40:54;3.30;;;0.73;;
70406;SDS011;57821;52.202;0.154;2022-11-15T16:43:21;4.63;;;0.88;;
70406;SDS011;57821;52.202;0.154;2022-11-15T16:45:48;3.38;;;0.77;;
70406;SDS011;57821;52.202;0.154;2022-11-15T16:50:49;5.97;;;1.20;;
70406;SDS011;57821;52.202;0.154;2022-11-15T16:53:15;3.60;;;1.20;;
70406;SDS011;57821;52.202;0.154;2022-11-15T16:55:42;3.85;;;1.02;;
70406;SDS011;57821;52.202;0.154;2022-11-15T16:58:08;10.57;;;1.30;;
70406;SDS011;57821;52.202;0.154;2022-11-15T17:00:35;6.72;;;1.30;;
70406;SDS011;57821;52.202;0.154;2022-11-15T17:03:01;6.93;;;1.67;;
70406;SDS011;57821;52.202;0.154;2022-11-15T17:05:28;5.68;;;1.48;;
70406;SDS011;57821;52.202;0.154;2022-11-15T17:07:55;4.00;;;0.98;;
70406;SDS011;57821;52.202;0.154;2022-11-15T17:10:22;5.85;;;1.30;;
70406;SDS011;57821;52.202;0.154;2022-11-15T17:12:50;5.30;;;1.63;;
70406;SDS011;57821;52.202;0.154;2022-11-15T17:15:17;6.43;;;1.20;;
70406;SDS011;57821;52.202;0.154;2022-11-15T17:17:44;10.50;;;1.17;;
70406;SDS011;57821;52.202;0.154;2022-11-15T17:20:17;5.82;;;1.15;;
70406;SDS011;57821;52.202;0.154;2022-11-15T17:22:45;4.70;;;1.35;;
70406;SDS011;57821;52.202;0.154;2022-11-15T17:25:11;5.57;;;1.60;;
70406;SDS011;57821;52.202;0.154;2022-11-15T17:27:38;6.60;;;1.52;;
70406;SDS011;57821;52.202;0.154;2022-11-15T17:30:05;4.90;;;1.42;;
70406;SDS011;57821;52.202;0.154;2022-11-15T17:32:34;4.18;;;1.42;;
70406;SDS011;57821;52.202;0.154;2022-11-15T17:35:01;7.03;;;2.22;;
70406;SDS011;57821;52.202;0.154;2022-11-15T17:37:28;6.45;;;1.20;;
70406;SDS011;57821;52.202;0.154;2022-11-15T17:39:55;12.52;;;1.80;;
70406;SDS011;57821;52.202;0.154;2022-11-15T17:42:21;6.68;;;1.50;;
70406;SDS011;57821;52.202;0.154;2022-11-15T17:44:48;7.00;;;1.25;;
70406;SDS011;57821;52.202;0.154;2022-11-15T17:47:14;5.47;;;1.20;;
70406;SDS011;57821;52.202;0.154;2022-11-15T17:49:41;6.60;;;1.90;;
70406;SDS011;57821;52.202;0.154;2022-11-15T17:52:07;7.07;;;2.05;;
70406;SDS011;57821;52.202;0.154;2022-11-15T17:54:34;6.53;;;1.90;;
70406;SDS011;57821;52.202;0.154;2022-11-15T17:57:00;8.88;;;2.00;;
70406;SDS011;57821;52.202;0.154;2022-11-15T17:59:27;8.20;;;1.83;;
70406;SDS011;57821;52.202;0.154;2022-11-15T18:01:53;7.93;;;1.83;;
70406;SDS011;57821;52.202;0.154;2022-11-15T18:04:20;9.05;;;2.50;;
70406;SDS011;57821;52.202;0.154;2022-11-15T18:06:47;9.82;;;2.17;;
70406;SDS011;57821;52.202;0.154;2022-11-15T18:09:13;7.63;;;1.65;;
70406;SDS011;57821;52.202;0.154;2022-11-15T18:11:40;7.35;;;2.05;;
70406;SDS011;57821;52.202;0.154;2022-11-15T18:14:08;10.57;;;1.98;;
70406;SDS011;57821;52.202;0.154;2022-11-15T18:16:38;12.32;;;2.17;;
70406;SDS011;57821;52.202;0.154;2022-11-15T18:19:05;10.60;;;2.00;;
70406;SDS011;57821;52.202;0.154;2022-11-15T18:21:32;8.02;;;2.35;;
70406;SDS011;57821;52.202;0.154;2022-11-15T18:24:00;9.98;;;2.45;;
70406;SDS011;57821;52.202;0.154;2022-11-15T18:26:27;11.63;;;2.55;;